sensor_id;sensor_type;location;lat;lon;timestamp;pressure;altitude;pressure_sealevel;temperature;humidity
51123;BME280;37162;41.724;13.346;2023-05-03T00:00:31;96329.72;;;17.45;73.80
51123;BME280;37162;41.724;13.346;2023-05-03T00:02:57;96331.63;;;17.44;73.79
51123;BME280;37162;41.724;13.346;2023-05-03T00:05:22;96332.41;;;17.45;73.79
51123;BME280;37162;41.724;13.346;2023-05-03T00:07:49;96322.75;;;17.44;73.48
51123;BME280;37162;41.724;13.346;2023-05-03T00:10:14;96322.50;;;17.45;73.72
51123;BME280;37162;41.724;13.346;2023-05-03T00:12:42;96317.13;;;17.45;73.79
51123;BME280;37162;41.724;13.346;2023-05-03T00:15:08;96312.00;;;17.44;73.39
51123;BME280;37162;41.724;13.346;2023-05-03T00:17:35;96310.13;;;17.44;73.60
51123;BME280;37162;41.724;13.346;2023-05-03T00:20:02;96310.13;;;17.44;73.44
51123;BME280;37162;41.724;13.346;2023-05-03T00:22:28;96313.63;;;17.45;73.77
51123;BME280;37162;41.724;13.346;2023-05-03T00:24:53;96308.25;;;17.45;73.38
51123;BME280;37162;41.724;13.346;2023-05-03T00:27:20;96308.25;;;17.45;73.42
51123;BME280;37162;41.724;13.346;2023-05-03T00:29:46;96298.31;;;17.45;73.84
51123;BME280;37162;41.724;13.346;2023-05-03T00:32:11;96303.47;;;17.47;74.20
51123;BME280;37162;41.724;13.346;2023-05-03T00:34:37;96309.06;;;17.45;74.45
51123;BME280;37162;41.724;13.346;2023-05-03T00:37:03;96305.81;;;17.43;74.34
51123;BME280;37162;41.724;13.346;2023-05-03T00:39:29;96307.69;;;17.43;74.33
51123;BME280;37162;41.724;13.346;2023-05-03T00:41:58;96305.00;;;17.43;74.35
51123;BME280;37162;41.724;13.346;2023-05-03T00:44:23;96311.44;;;17.42;74.36
51123;BME280;37162;41.724;13.346;2023-05-03T00:46:50;96307.13;;;17.41;74.19
51123;BME280;37162;41.724;13.346;2023-05-03T00:49:17;96312.47;;;17.41;74.04
51123;BME280;37162;41.724;13.346;2023-05-03T00:51:43;96307.13;;;17.41;74.07
51123;BME280;37162;41.724;13.346;2023-05-03T00:54:09;96311.69;;;17.40;74.12
51123;BME280;37162;41.724;13.346;2023-05-03T00:56:36;96312.47;;;17.41;74.26
51123;BME280;37162;41.724;13.346;2023-05-03T00:59:03;96309.00;;;17.40;74.18
51123;BME280;37162;41.724;13.346;2023-05-03T01:01:30;96300.88;;;17.35;73.89
51123;BME280;37162;41.724;13.346;2023-05-03T01:03:58;96309.81;;;17.41;74.07
51123;BME280;37162;41.724;13.346;2023-05-03T01:06:35;96307.94;;;17.41;74.03
51123;BME280;37162;41.724;13.346;2023-05-03T01:14:35;96308.75;;;17.42;74.14
51123;BME280;37162;41.724;13.346;2023-05-03T01:17:09;96306.88;;;17.42;74.19
51123;BME280;37162;41.724;13.346;2023-05-03T01:19:40;96308.75;;;17.42;74.22
51123;BME280;37162;41.724;13.346;2023-05-03T01:22:21;96298.84;;;17.42;73.96
51123;BME280;37162;41.724;13.346;2023-05-03T01:25:04;96296.97;;;17.43;74.10
51123;BME280;37162;41.724;13.346;2023-05-03T01:27:31;96303.41;;;17.42;74.13
51123;BME280;37162;41.724;13.346;2023-05-03T01:29:57;96300.72;;;17.42;74.21
51123;BME280;37162;41.724;13.346;2023-05-03T01:32:28;96304.19;;;17.42;74.37
51123;BME280;37162;41.724;13.346;2023-05-03T01:35:11;96307.69;;;17.43;74.22
51123;BME280;37162;41.724;13.346;2023-05-03T01:37:36;96307.69;;;17.43;74.47
51123;BME280;37162;41.724;13.346;2023-05-03T01:40:02;96301.19;;;17.38;74.29
51123;BME280;37162;41.724;13.346;2023-05-03T01:42:36;96297.22;;;17.41;74.51
51123;BME280;37162;41.724;13.346;2023-05-03T01:45:03;96302.59;;;17.41;74.31
51123;BME280;37162;41.724;13.346;2023-05-03T01:47:29;96294.28;;;17.43;74.47
51123;BME280;37162;41.724;13.346;2023-05-03T01:49:55;96285.63;;;17.41;74.37
51123;BME280;37162;41.724;13.346;2023-05-03T01:52:22;96289.97;;;17.42;74.24
51123;BME280;37162;41.724;13.346;2023-05-03T01:54:48;96286.22;;;17.43;74.35
51123;BME280;37162;41.724;13.346;2023-05-03T01:57:13;96289.97;;;17.42;74.40
51123;BME280;37162;41.724;13.346;2023-05-03T01:59:38;96288.09;;;17.42;74.46
51123;BME280;37162;41.724;13.346;2023-05-03T02:02:04;96282.72;;;17.42;74.22
51123;BME280;37162;41.724;13.346;2023-05-03T02:04:29;96284.34;;;17.43;74.13
51123;BME280;37162;41.724;13.346;2023-05-03T02:06:55;96287.03;;;17.43;74.22
51123;BME280;37162;41.724;13.346;2023-05-03T02:09:21;96287.03;;;17.43;74.30
51123;BME280;37162;41.724;13.346;2023-05-03T02:11:46;96280.84;;;17.43;74.13
51123;BME280;37162;41.724;13.346;2023-05-03T02:14:12;96276.28;;;17.43;74.16
51123;BME280;37162;41.724;13.346;2023-05-03T02:16:37;96270.91;;;17.43;74.08
51123;BME280;37162;41.724;13.346;2023-05-03T02:19:03;96284.34;;;17.43;73.75
51123;BME280;37162;41.724;13.346;2023-05-03T02:21:29;96266.34;;;17.44;73.93
51123;BME280;37162;41.724;13.346;2023-05-03T02:23:55;96275.22;;;17.44;73.85
51123;BME280;37162;41.724;13.346;2023-05-03T02:26:21;96272.53;;;17.44;74.12
51123;BME280;37162;41.724;13.346;2023-05-03T02:28:46;96277.09;;;17.44;73.99
51123;BME280;37162;41.724;13.346;2023-05-03T02:31:12;96273.84;;;17.42;73.91
51123;BME280;37162;41.724;13.346;2023-05-03T02:33:38;96274.41;;;17.44;73.74
51123;BME280;37162;41.724;13.346;2023-05-03T02:36:03;96276.28;;;17.43;73.92
51123;BME280;37162;41.724;13.346;2023-05-03T02:38:29;96266.28;;;17.38;73.90
51123;BME280;37162;41.724;13.346;2023-05-03T02:40:55;96272.78;;;17.43;73.76
51123;BME280;37162;41.724;13.346;2023-05-03T02:43:21;96274.66;;;17.42;73.88
51123;BME280;37162;41.724;13.346;2023-05-03T02:45:46;96284.59;;;17.42;73.68
51123;BME280;37162;41.724;13.346;2023-05-03T02:48:11;96286.47;;;17.41;73.78
51123;BME280;37162;41.724;13.346;2023-05-03T02:50:38;96290.78;;;17.42;73.40
51123;BME280;37162;41.724;13.346;2023-05-03T02:53:03;96288.09;;;17.42;73.38
51123;BME280;37162;41.724;13.346;2023-05-03T02:55:29;96287.28;;;17.42;73.51
51123;BME280;37162;41.724;13.346;2023-05-03T02:57:54;96288.31;;;17.41;73.37
51123;BME280;37162;41.724;13.346;2023-05-03T03:00:20;96292.88;;;17.40;73.45
51123;BME280;37162;41.724;13.346;2023-05-03T03:02:46;96285.88;;;17.39;73.45
51123;BME280;37162;41.724;13.346;2023-05-03T03:05:11;96289.97;;;17.42;73.54
51123;BME280;37162;41.724;13.346;2023-05-03T03:07:37;96292.66;;;17.42;73.54
51123;BME280;37162;41.724;13.346;2023-05-03T03:10:04;96310.63;;;17.41;73.30
51123;BME280;37162;41.724;13.346;2023-05-03T03:12:29;96314.13;;;17.42;73.40
51123;BME280;37162;41.724;13.346;2023-05-03T03:14:55;96315.16;;;17.41;73.30
51123;BME280;37162;41.724;13.346;2023-05-03T03:17:20;96310.63;;;17.41;73.58
51123;BME280;37162;41.724;13.346;2023-05-03T03:19:45;96316.81;;;17.42;73.41
51123;BME280;37162;41.724;13.346;2023-05-03T03:22:11;96314.94;;;17.42;73.67
51123;BME280;37162;41.724;13.346;2023-05-03T03:24:36;96307.84;;;17.36;73.76
51123;BME280;37162;41.724;13.346;2023-05-03T03:27:02;96321.59;;;17.40;74.37
51123;BME280;37162;41.724;13.346;2023-05-03T03:29:30;96320.53;;;17.41;74.28
51123;BME280;37162;41.724;13.346;2023-05-03T03:31:55;96321.88;;;17.38;74.13
51123;BME280;37162;41.724;13.346;2023-05-03T03:34:21;96315.34;;;17.34;74.09
51123;BME280;37162;41.724;13.346;2023-05-03T03:36:47;96318.03;;;17.34;74.15
51123;BME280;37162;41.724;13.346;2023-05-03T03:39:12;96328.03;;;17.38;74.27
51123;BME280;37162;41.724;13.346;2023-05-03T03:41:38;96324.53;;;17.38;74.76
51123;BME280;37162;41.724;13.346;2023-05-03T03:44:03;96321.78;;;17.33;75.11
51123;BME280;37162;41.724;13.346;2023-05-03T03:46:29;96334.22;;;17.39;75.25
51123;BME280;37162;41.724;13.346;2023-05-03T03:48:54;96345.78;;;17.40;75.10
51123;BME280;37162;41.724;13.346;2023-05-03T03:51:20;96336.91;;;17.39;75.21
51123;BME280;37162;41.724;13.346;2023-05-03T03:53:45;96340.66;;;17.38;75.12
51123;BME280;37162;41.724;13.346;2023-05-03T03:56:11;96333.91;;;17.35;74.80
51123;BME280;37162;41.724;13.346;2023-05-03T03:58:36;96337.38;;;17.36;74.87
51123;BME280;37162;41.724;13.346;2023-05-03T04:01:02;96338.22;;;17.36;74.79
51123;BME280;37162;41.724;13.346;2023-05-03T04:03:27;96330.97;;;17.37;74.50
51123;BME280;37162;41.724;13.346;2023-05-03T04:05:53;96333.66;;;17.37;74.40
51123;BME280;37162;41.724;13.346;2023-05-03T04:08:18;96344.16;;;17.38;74.20
51123;BME280;37162;41.724;13.346;2023-05-03T04:10:43;96336.84;;;17.34;74.32
51123;BME280;37162;41.724;13.346;2023-05-03T04:13:09;96341.47;;;17.38;74.10
51123;BME280;37162;41.724;13.346;2023-05-03T04:15:34;96346.84;;;17.38;74.05
51123;BME280;37162;41.724;13.346;2023-05-03T04:18:00;96358.38;;;17.39;74.13
51123;BME280;37162;41.724;13.346;2023-05-03T04:20:25;96348.72;;;17.38;74.07
51123;BME280;37162;41.724;13.346;2023-05-03T04:22:51;96364.56;;;17.40;74.10
51123;BME280;37162;41.724;13.346;2023-05-03T04:25:16;96369.94;;;17.40;74.06
51123;BME280;37162;41.724;13.346;2023-05-03T04:27:43;96364.56;;;17.40;73.99
51123;BME280;37162;41.724;13.346;2023-05-03T04:30:09;96359.47;;;17.38;74.05
51123;BME280;37162;41.724;13.346;2023-05-03T04:32:36;96372.63;;;17.40;74.08
51123;BME280;37162;41.724;13.346;2023-05-03T04:35:05;96369.94;;;17.40;74.03
51123;BME280;37162;41.724;13.346;2023-05-03T04:37:34;96371.81;;;17.39;74.17
51123;BME280;37162;41.724;13.346;2023-05-03T04:39:59;96367.50;;;17.38;74.01
51123;BME280;37162;41.724;13.346;2023-05-03T04:42:25;96374.50;;;17.39;73.90
51123;BME280;37162;41.724;13.346;2023-05-03T04:44:51;96382.56;;;17.39;73.90
51123;BME280;37162;41.724;13.346;2023-05-03T04:47:16;96391.44;;;17.40;73.85
51123;BME280;37162;41.724;13.346;2023-05-03T04:49:43;96378.81;;;17.40;73.70
51123;BME280;37162;41.724;13.346;2023-05-03T04:52:08;96393.88;;;17.41;73.78
51123;BME280;37162;41.724;13.346;2023-05-03T04:54:34;96396.56;;;17.41;74.02
51123;BME280;37162;41.724;13.346;2023-05-03T04:57:00;96390.28;;;17.35;73.91
51123;BME280;37162;41.724;13.346;2023-05-03T04:59:25;96393.88;;;17.41;73.84
51123;BME280;37162;41.724;13.346;2023-05-03T05:01:51;96400.88;;;17.42;73.92
51123;BME280;37162;41.724;13.346;2023-05-03T05:04:16;96399.00;;;17.43;73.81
51123;BME280;37162;41.724;13.346;2023-05-03T05:06:42;96395.50;;;17.42;73.66
51123;BME280;37162;41.724;13.346;2023-05-03T05:09:19;96393.38;;;17.44;73.61
51123;BME280;37162;41.724;13.346;2023-05-03T05:11:45;96399.00;;;17.43;73.43
51123;BME280;37162;41.724;13.346;2023-05-03T05:14:10;96392.97;;;17.35;73.47
51123;BME280;37162;41.724;13.346;2023-05-03T05:16:36;96400.88;;;17.42;73.49
51123;BME280;37162;41.724;13.346;2023-05-03T05:19:02;96406.00;;;17.44;73.40
51123;BME280;37162;41.724;13.346;2023-05-03T05:21:28;96408.69;;;17.44;73.11
51123;BME280;37162;41.724;13.346;2023-05-03T05:23:53;96408.69;;;17.44;73.30
51123;BME280;37162;41.724;13.346;2023-05-03T05:26:19;96411.38;;;17.44;73.25
51123;BME280;37162;41.724;13.346;2023-05-03T05:28:44;96401.44;;;17.44;73.14
51123;BME280;37162;41.724;13.346;2023-05-03T05:31:09;96413.25;;;17.43;73.13
51123;BME280;37162;41.724;13.346;2023-05-03T05:33:35;96409.66;;;17.37;73.13
51123;BME280;37162;41.724;13.346;2023-05-03T05:36:01;96424.78;;;17.44;72.96
51123;BME280;37162;41.724;13.346;2023-05-03T05:38:26;96426.66;;;17.43;73.15
51123;BME280;37162;41.724;13.346;2023-05-03T05:40:52;96433.91;;;17.43;73.20
51123;BME280;37162;41.724;13.346;2023-05-03T05:43:17;96427.47;;;17.44;73.33
51123;BME280;37162;41.724;13.346;2023-05-03T05:45:43;96430.97;;;17.44;73.02
51123;BME280;37162;41.724;13.346;2023-05-03T05:48:08;96422.09;;;17.44;73.37
51123;BME280;37162;41.724;13.346;2023-05-03T05:50:34;96421.03;;;17.45;73.21
51123;BME280;37162;41.724;13.346;2023-05-03T05:53:00;96424.78;;;17.44;73.26
51123;BME280;37162;41.724;13.346;2023-05-03T05:55:26;96434.47;;;17.45;73.09
51123;BME280;37162;41.724;13.346;2023-05-03T05:57:52;96429.91;;;17.45;72.84
51123;BME280;37162;41.724;13.346;2023-05-03T06:00:17;96436.13;;;17.46;72.83
51123;BME280;37162;41.724;13.346;2023-05-03T06:02:43;96427.72;;;17.42;72.87
51123;BME280;37162;41.724;13.346;2023-05-03T06:05:10;96434.25;;;17.46;72.85
51123;BME280;37162;41.724;13.346;2023-05-03T06:07:35;96430.75;;;17.46;72.98
51123;BME280;37162;41.724;13.346;2023-05-03T06:10:01;96431.56;;;17.46;73.11
51123;BME280;37162;41.724;13.346;2023-05-03T06:12:27;96428.06;;;17.46;73.15
51123;BME280;37162;41.724;13.346;2023-05-03T06:14:52;96425.13;;;17.47;73.42
51123;BME280;37162;41.724;13.346;2023-05-03T06:17:17;96427.00;;;17.47;73.63
51123;BME280;37162;41.724;13.346;2023-05-03T06:19:43;96441.50;;;17.46;73.76
51123;BME280;37162;41.724;13.346;2023-05-03T06:22:09;96451.16;;;17.47;73.85
51123;BME280;37162;41.724;13.346;2023-05-03T06:24:35;96443.13;;;17.47;73.66
51123;BME280;37162;41.724;13.346;2023-05-03T06:27:00;96434.16;;;17.41;73.35
51123;BME280;37162;41.724;13.346;2023-05-03T06:29:26;96456.53;;;17.47;73.42
51123;BME280;37162;41.724;13.346;2023-05-03T06:31:52;96451.16;;;17.47;73.36
51123;BME280;37162;41.724;13.346;2023-05-03T06:34:18;96448.22;;;17.48;73.40
51123;BME280;37162;41.724;13.346;2023-05-03T06:36:44;96445.81;;;17.47;73.57
51123;BME280;37162;41.724;13.346;2023-05-03T06:39:10;96438.63;;;17.52;73.84
51123;BME280;37162;41.724;13.346;2023-05-03T06:41:35;96439.84;;;17.45;73.79
51123;BME280;37162;41.724;13.346;2023-05-03T06:44:01;96447.75;;;17.51;73.85
51123;BME280;37162;41.724;13.346;2023-05-03T06:46:28;96448.81;;;17.50;73.56
51123;BME280;37162;41.724;13.346;2023-05-03T06:48:54;96446.13;;;17.50;73.25
51123;BME280;37162;41.724;13.346;2023-05-03T06:51:26;96455.00;;;17.51;73.15
51123;BME280;37162;41.724;13.346;2023-05-03T06:53:56;96453.69;;;17.53;73.09
51123;BME280;37162;41.724;13.346;2023-05-03T06:56:24;96455.56;;;17.53;73.13
51123;BME280;37162;41.724;13.346;2023-05-03T06:58:50;96459.38;;;17.57;73.26
51123;BME280;37162;41.724;13.346;2023-05-03T07:01:15;96444.56;;;17.54;73.08
51123;BME280;37162;41.724;13.346;2023-05-03T07:03:43;96456.22;;;17.60;73.31
51123;BME280;37162;41.724;13.346;2023-05-03T07:06:08;96451.41;;;17.62;72.98
51123;BME280;37162;41.724;13.346;2023-05-03T07:08:34;96453.84;;;17.63;72.91
51123;BME280;37162;41.724;13.346;2023-05-03T07:16:00;96464.13;;;17.67;72.53
51123;BME280;37162;41.724;13.346;2023-05-03T07:18:25;96459.56;;;17.67;72.63
51123;BME280;37162;41.724;13.346;2023-05-03T07:20:51;96457.44;;;17.69;72.26
51123;BME280;37162;41.724;13.346;2023-05-03T07:23:17;96464.44;;;17.70;72.50
51123;BME280;37162;41.724;13.346;2023-05-03T07:25:42;96472.72;;;17.69;72.34
51123;BME280;37162;41.724;13.346;2023-05-03T07:28:08;96453.63;;;17.65;72.21
51123;BME280;37162;41.724;13.346;2023-05-03T07:30:33;96465.00;;;17.72;72.25
51123;BME280;37162;41.724;13.346;2023-05-03T07:32:59;96471.19;;;17.73;72.37
51123;BME280;37162;41.724;13.346;2023-05-03T07:35:24;96475.56;;;17.74;72.32
51123;BME280;37162;41.724;13.346;2023-05-03T07:37:51;96472.03;;;17.73;72.40
51123;BME280;37162;41.724;13.346;2023-05-03T07:40:17;96472.50;;;17.70;72.52
51123;BME280;37162;41.724;13.346;2023-05-03T07:42:43;96476.25;;;17.69;72.28
51123;BME280;37162;41.724;13.346;2023-05-03T07:45:09;96468.31;;;17.74;72.46
51123;BME280;37162;41.724;13.346;2023-05-03T07:47:34;96473.06;;;17.72;72.33
51123;BME280;37162;41.724;13.346;2023-05-03T07:50:02;96483.34;;;17.75;72.55
51123;BME280;37162;41.724;13.346;2023-05-03T07:52:29;96468.75;;;17.71;72.46
51123;BME280;37162;41.724;13.346;2023-05-03T07:54:55;96497.34;;;17.77;72.38
51123;BME280;37162;41.724;13.346;2023-05-03T07:57:20;96486.59;;;17.77;72.54
51123;BME280;37162;41.724;13.346;2023-05-03T07:59:48;96495.97;;;17.75;72.74
51123;BME280;37162;41.724;13.346;2023-05-03T08:02:13;96493.59;;;17.78;72.76
51123;BME280;37162;41.724;13.346;2023-05-03T08:04:39;96485.78;;;17.77;72.68
51123;BME280;37162;41.724;13.346;2023-05-03T08:07:04;96495.25;;;17.79;72.84
51123;BME280;37162;41.724;13.346;2023-05-03T08:09:30;96494.19;;;17.80;72.93
51123;BME280;37162;41.724;13.346;2023-05-03T08:11:55;96506.00;;;17.79;72.86
51123;BME280;37162;41.724;13.346;2023-05-03T08:14:22;96499.56;;;17.80;72.92
51123;BME280;37162;41.724;13.346;2023-05-03T08:16:47;96496.06;;;17.80;72.84
51123;BME280;37162;41.724;13.346;2023-05-03T08:19:13;96481.75;;;17.74;72.71
51123;BME280;37162;41.724;13.346;2023-05-03T08:21:38;96495.25;;;17.79;72.79
51123;BME280;37162;41.724;13.346;2023-05-03T08:24:04;96502.72;;;17.77;72.28
51123;BME280;37162;41.724;13.346;2023-05-03T08:26:34;96509.72;;;17.78;72.07
51123;BME280;37162;41.724;13.346;2023-05-03T08:28:59;96506.00;;;17.79;72.05
51123;BME280;37162;41.724;13.346;2023-05-03T08:31:27;96512.19;;;17.80;72.18
51123;BME280;37162;41.724;13.346;2023-05-03T08:33:52;96515.59;;;17.75;72.58
51123;BME280;37162;41.724;13.346;2023-05-03T08:36:19;96527.50;;;17.79;72.34
51123;BME280;37162;41.724;13.346;2023-05-03T08:38:45;96531.00;;;17.80;72.32
51123;BME280;37162;41.724;13.346;2023-05-03T08:41:20;96530.41;;;17.78;71.91
51123;BME280;37162;41.724;13.346;2023-05-03T08:43:51;96532.53;;;17.76;71.80
51123;BME280;37162;41.724;13.346;2023-05-03T08:46:17;96543.28;;;17.76;71.50
51123;BME280;37162;41.724;13.346;2023-05-03T08:48:45;96535.78;;;17.78;71.73
51123;BME280;37162;41.724;13.346;2023-05-03T08:51:12;96533.09;;;17.78;71.52
51123;BME280;37162;41.724;13.346;2023-05-03T08:53:38;96542.81;;;17.79;71.77
51123;BME280;37162;41.724;13.346;2023-05-03T08:56:08;96542.22;;;17.77;71.90
51123;BME280;37162;41.724;13.346;2023-05-03T08:58:34;96546.06;;;17.81;72.09
51123;BME280;37162;41.724;13.346;2023-05-03T09:01:05;96550.13;;;17.83;72.26
51123;BME280;37162;41.724;13.346;2023-05-03T09:03:32;96547.47;;;17.83;72.40
51123;BME280;37162;41.724;13.346;2023-05-03T09:05:57;96555.25;;;17.85;72.28
51123;BME280;37162;41.724;13.346;2023-05-03T09:08:26;96538.47;;;17.78;72.40
51123;BME280;37162;41.724;13.346;2023-05-03T09:10:52;96566.81;;;17.85;72.39
51123;BME280;37162;41.724;13.346;2023-05-03T09:13:18;96544.50;;;17.85;72.43
51123;BME280;37162;41.724;13.346;2023-05-03T09:15:52;96547.19;;;17.85;72.50
51123;BME280;37162;41.724;13.346;2023-05-03T09:18:18;96551.75;;;17.84;72.37
51123;BME280;37162;41.724;13.346;2023-05-03T09:20:45;96556.31;;;17.84;72.46
51123;BME280;37162;41.724;13.346;2023-05-03T09:25:53;96559.75;;;17.79;72.27
51123;BME280;37162;41.724;13.346;2023-05-03T09:28:19;96554.69;;;17.83;72.34
51123;BME280;37162;41.724;13.346;2023-05-03T09:30:46;96549.56;;;17.81;72.37
51123;BME280;37162;41.724;13.346;2023-05-03T09:33:12;96549.56;;;17.81;72.50
51123;BME280;37162;41.724;13.346;2023-05-03T09:36:02;96554.94;;;17.81;72.45
51123;BME280;37162;41.724;13.346;2023-05-03T09:38:32;96556.00;;;17.80;72.49
51123;BME280;37162;41.724;13.346;2023-05-03T09:40:59;96538.72;;;17.76;72.55
51123;BME280;37162;41.724;13.346;2023-05-03T09:43:25;96557.34;;;17.83;72.60
51123;BME280;37162;41.724;13.346;2023-05-03T09:45:51;96546.06;;;17.81;72.43
51123;BME280;37162;41.724;13.346;2023-05-03T09:48:17;96534.97;;;17.77;72.62
51123;BME280;37162;41.724;13.346;2023-05-03T09:50:47;96550.44;;;17.87;72.53
51123;BME280;37162;41.724;13.346;2023-05-03T09:53:14;96542.16;;;17.88;72.51
51123;BME280;37162;41.724;13.346;2023-05-03T09:55:43;96541.09;;;17.90;72.51
51123;BME280;37162;41.724;13.346;2023-05-03T09:58:08;96537.09;;;17.92;72.55
51123;BME280;37162;41.724;13.346;2023-05-03T10:00:37;96534.41;;;17.92;72.58
51123;BME280;37162;41.724;13.346;2023-05-03T10:03:08;96532.84;;;17.96;72.14
51123;BME280;37162;41.724;13.346;2023-05-03T10:05:47;96522.09;;;17.96;72.41
51123;BME280;37162;41.724;13.346;2023-05-03T10:08:27;96536.94;;;17.99;72.17
51123;BME280;37162;41.724;13.346;2023-05-03T10:10:55;96523.44;;;17.94;72.08
51123;BME280;37162;41.724;13.346;2023-05-03T10:13:22;96527.81;;;18.00;71.87
51123;BME280;37162;41.724;13.346;2023-05-03T10:16:04;96539.38;;;18.00;71.70
51123;BME280;37162;41.724;13.346;2023-05-03T10:18:31;96536.69;;;18.00;71.97
51123;BME280;37162;41.724;13.346;2023-05-03T10:21:03;96541.81;;;18.02;72.00
51123;BME280;37162;41.724;13.346;2023-05-03T10:23:31;96536.44;;;18.02;71.72
51123;BME280;37162;41.724;13.346;2023-05-03T10:28:36;96538.09;;;18.03;71.79
51123;BME280;37162;41.724;13.346;2023-05-03T10:31:02;96538.09;;;18.03;72.01
51123;BME280;37162;41.724;13.346;2023-05-03T10:33:29;96528.63;;;18.00;71.67
51123;BME280;37162;41.724;13.346;2023-05-03T10:35:56;96541.34;;;18.05;71.60
51123;BME280;37162;41.724;13.346;2023-05-03T10:38:26;96521.88;;;17.98;71.62
51123;BME280;37162;41.724;13.346;2023-05-03T10:40:52;96529.44;;;18.01;69.12
51123;BME280;37162;41.724;13.346;2023-05-03T10:46:03;96533.94;;;18.12;68.11
51123;BME280;37162;41.724;13.346;2023-05-03T10:48:29;96533.66;;;18.13;68.97
51123;BME280;37162;41.724;13.346;2023-05-03T10:50:56;96538.31;;;18.18;69.43
51123;BME280;37162;41.724;13.346;2023-05-03T10:56:08;96539.38;;;18.17;70.39
51123;BME280;37162;41.724;13.346;2023-05-03T10:58:42;96521.84;;;18.14;70.53
51123;BME280;37162;41.724;13.346;2023-05-03T11:01:09;96532.06;;;18.12;70.92
51123;BME280;37162;41.724;13.346;2023-05-03T11:03:49;96536.09;;;18.15;71.00
51123;BME280;37162;41.724;13.346;2023-05-03T11:06:31;96526.41;;;18.14;71.06
51123;BME280;37162;41.724;13.346;2023-05-03T11:08:58;96521.03;;;18.14;71.13
51123;BME280;37162;41.724;13.346;2023-05-03T11:11:23;96523.72;;;18.14;71.32
51123;BME280;37162;41.724;13.346;2023-05-03T11:13:49;96533.41;;;18.15;71.32
51123;BME280;37162;41.724;13.346;2023-05-03T11:16:15;96541.47;;;18.15;71.51
51123;BME280;37162;41.724;13.346;2023-05-03T11:18:41;96539.06;;;18.13;71.46
51123;BME280;37162;41.724;13.346;2023-05-03T11:21:07;96543.63;;;18.13;71.66
51123;BME280;37162;41.724;13.346;2023-05-03T11:23:32;96536.84;;;18.10;71.69
51123;BME280;37162;41.724;13.346;2023-05-03T11:25:57;96536.63;;;18.12;71.82
51123;BME280;37162;41.724;13.346;2023-05-03T11:28:24;96544.69;;;18.12;71.75
51123;BME280;37162;41.724;13.346;2023-05-03T11:30:49;96524.38;;;18.04;71.91
51123;BME280;37162;41.724;13.346;2023-05-03T11:33:15;96546.78;;;18.10;72.07
51123;BME280;37162;41.724;13.346;2023-05-03T11:35:41;96526.28;;;18.04;71.94
51123;BME280;37162;41.724;13.346;2023-05-03T11:38:08;96537.91;;;18.09;72.10
51123;BME280;37162;41.724;13.346;2023-05-03T11:40:34;96538.16;;;18.08;71.98
51123;BME280;37162;41.724;13.346;2023-05-03T11:43:01;96548.91;;;18.08;72.08
51123;BME280;37162;41.724;13.346;2023-05-03T11:45:31;96542.72;;;18.07;71.87
51123;BME280;37162;41.724;13.346;2023-05-03T11:48:02;96528.63;;;18.00;72.10
51123;BME280;37162;41.724;13.346;2023-05-03T11:50:51;96546.44;;;18.06;72.07
51123;BME280;37162;41.724;13.346;2023-05-03T11:53:21;96543.75;;;18.06;72.00
51123;BME280;37162;41.724;13.346;2023-05-03T11:55:48;96544.28;;;18.03;72.05
51123;BME280;37162;41.724;13.346;2023-05-03T11:58:20;96541.06;;;18.06;72.18
51123;BME280;37162;41.724;13.346;2023-05-03T12:00:49;96537.56;;;18.06;72.10
51123;BME280;37162;41.724;13.346;2023-05-03T12:03:26;96537.56;;;18.06;72.22
51123;BME280;37162;41.724;13.346;2023-05-03T12:06:00;96543.75;;;18.06;72.11
51123;BME280;37162;41.724;13.346;2023-05-03T12:08:29;96545.63;;;18.06;72.07
51123;BME280;37162;41.724;13.346;2023-05-03T12:10:56;96540.19;;;18.01;72.06
51123;BME280;37162;41.724;13.346;2023-05-03T12:13:30;96553.69;;;18.06;72.00
51123;BME280;37162;41.724;13.346;2023-05-03T12:15:57;96542.94;;;18.06;71.97
51123;BME280;37162;41.724;13.346;2023-05-03T12:18:26;96549.97;;;18.07;72.02
51123;BME280;37162;41.724;13.346;2023-05-03T12:20:55;96547.03;;;18.08;71.85
51123;BME280;37162;41.724;13.346;2023-05-03T12:23:24;96519.00;;;17.87;72.10
51123;BME280;37162;41.724;13.346;2023-05-03T12:25:51;96543.53;;;18.08;71.88
51123;BME280;37162;41.724;13.346;2023-05-03T12:28:17;96545.97;;;18.09;71.73
51123;BME280;37162;41.724;13.346;2023-05-03T12:30:42;96548.66;;;18.09;71.87
51123;BME280;37162;41.724;13.346;2023-05-03T12:33:08;96552.16;;;18.10;71.67
51123;BME280;37162;41.724;13.346;2023-05-03T12:35:35;96550.28;;;18.10;71.79
51123;BME280;37162;41.724;13.346;2023-05-03T12:38:01;96544.59;;;18.07;71.89
51123;BME280;37162;41.724;13.346;2023-05-03T12:40:30;96538.16;;;18.08;71.67
51123;BME280;37162;41.724;13.346;2023-05-03T12:42:56;96545.16;;;18.09;71.65
51123;BME280;37162;41.724;13.346;2023-05-03T12:45:21;96546.22;;;18.08;71.75
51123;BME280;37162;41.724;13.346;2023-05-03T12:47:47;96538.91;;;18.03;71.63
51123;BME280;37162;41.724;13.346;2023-05-03T12:50:12;96548.66;;;18.09;71.80
51123;BME280;37162;41.724;13.346;2023-05-03T12:52:38;96542.94;;;18.06;71.63
51123;BME280;37162;41.724;13.346;2023-05-03T12:55:04;96545.41;;;18.07;71.71
51123;BME280;37162;41.724;13.346;2023-05-03T12:57:30;96544.59;;;18.07;71.55
51123;BME280;37162;41.724;13.346;2023-05-03T12:59:56;96539.22;;;18.07;71.63
51123;BME280;37162;41.724;13.346;2023-05-03T13:02:21;96550.78;;;18.07;71.65
51123;BME280;37162;41.724;13.346;2023-05-03T13:04:48;96551.00;;;18.06;71.65
51123;BME280;37162;41.724;13.346;2023-05-03T13:07:22;96544.84;;;18.05;71.84
51123;BME280;37162;41.724;13.346;2023-05-03T13:09:49;96532.84;;;17.96;71.87